Weather History for Moriarty, NM

Change the Weather History Date:

Friday, February 14, 2014

  Actual Average (KABQ) Record (KABQ)
Temperature  
Mean Temperature 54 °F 41 °F  
Max Temperature 63 °F 52 °F 73 °F (1979)
Min Temperature 44 °F 30 °F 6 °F (1895)
Degree Days  
Heating Degree Days 12 24  
Month to date heating degree days 353  
Since 1 July heating degree days 2995  
Cooling Degree Days 0 0  
Month to date cooling degree days 0  
Year to date cooling degree days 0  
Growing Degree Days 4 (Base 50)    
Moisture  
Dew Point 22 °F    
Average Humidity 30    
Maximum Humidity 42    
Minimum Humidity 21    
Precipitation  
Precipitation 0.00 in 0.02 in 0.51 in (1993)
Month to date precipitation 0.23  
Year to date precipitation 0.61  
Snow  
Snow 0.00 in - - ()
Month to date snowfall  
Since 1 July snowfall  
Snow Depth -    
Sea Level Pressure  
Sea Level Pressure 30.09 in    
Wind  
Wind Speed 18 mph (NW)    
Max Wind Speed 31 mph    
Max Gust Speed 38 mph    
Visibility 10 miles    
Events      
T = Trace of Precipitation, MM = Missing Value Source: NWS Daily Summary

Daily Weather History Graph

Daily Weather History Graph

Search for Another Location

Airport:

Trip Planner

Search our weather history database for the weather conditions in past years. The results will help you decide how hot, cold, wet, or windy it might be!

Date:

Astronomy

Feb. 14, 2014 Rise Set
Actual Time 6:50 AM MST 5:45 PM MST
Civil Twilight 6:25 AM MST 6:11 PM MST
Nautical Twilight 5:55 AM MST 6:41 PM MST
Astronomical Twilight 5:25 AM MST 7:11 PM MST
Moon 5:50 PM MST (2/14) 6:20 AM MST (2/14)
Length of Visible Light 11h 46m
Length of Day
10h 54m
Full, 100% of the Moon is Illuminated
Feb 14
Full
Feb 14
Full
Feb 22
Last Quarter
Mar 1
New
Mar 8
First Quarter

Hourly Weather History & Observations

Time (MST) Temp. Windchill Dew Point Humidity Pressure Visibility Wind Dir Wind Speed Gust Speed Precip Events Conditions
12:15 AM 44.4 °F 37.5 °F 19.4 °F 37% 30.04 in 10.0 mi NW 15.0 mph - N/A   Clear
12:35 AM 45.1 °F 37.6 °F 19.0 °F 35% 30.03 in 10.0 mi NW 18.4 mph - N/A   Clear
12:55 AM 48.4 °F - 18.3 °F 30% 30.02 in 10.0 mi NW 18.4 mph - N/A   Clear
1:15 AM 47.3 °F - 17.4 °F 30% 30.01 in 10.0 mi NW 16.1 mph - N/A   Clear
1:35 AM 48.0 °F - 16.9 °F 29% 30.01 in 10.0 mi NW 20.7 mph 26.5 mph N/A   Clear
1:55 AM 47.1 °F - 16.7 °F 30% 30.01 in 10.0 mi NW 19.6 mph - N/A   Clear
2:15 AM 50.0 °F - 16.7 °F 27% 29.99 in 10.0 mi NW 24.2 mph 28.8 mph N/A   Clear
2:35 AM 50.9 °F - 17.2 °F 26% 29.98 in 10.0 mi WNW 26.5 mph 38.0 mph N/A   Clear
3:15 AM 50.5 °F - 18.5 °F 28% 29.98 in 10.0 mi NW 29.9 mph 36.8 mph N/A   Clear
3:35 AM 50.7 °F - 19.0 °F 29% 29.98 in 10.0 mi NW 27.6 mph 34.5 mph N/A   Clear
3:55 AM 50.9 °F - 19.8 °F 29% 29.98 in 10.0 mi NW 31.1 mph 38.0 mph N/A   Clear
4:15 AM 50.5 °F - 19.9 °F 30% 29.99 in 10.0 mi NW 28.8 mph 35.7 mph N/A   Clear
4:35 AM 49.8 °F - 20.3 °F 31% 30.01 in 10.0 mi NNW 21.9 mph 29.9 mph N/A   Clear
4:55 AM 48.6 °F - 19.9 °F 32% 30.02 in 10.0 mi North 25.3 mph 29.9 mph N/A   Clear
5:15 AM 49.1 °F - 20.1 °F 32% 30.02 in 10.0 mi NW 25.3 mph 31.1 mph N/A   Clear
5:35 AM 47.7 °F - 19.8 °F 33% 30.02 in 10.0 mi NW 25.3 mph 31.1 mph N/A   Clear
5:55 AM 47.3 °F - 19.9 °F 34% 30.02 in 10.0 mi NW 26.5 mph 32.2 mph N/A   Clear
6:15 AM 46.4 °F 38.3 °F 19.9 °F 35% 30.03 in 10.0 mi NW 23.0 mph 29.9 mph N/A   Clear
6:35 AM 46.0 °F 38.5 °F 20.3 °F 36% 30.05 in 10.0 mi WNW 19.6 mph - N/A   Clear
6:55 AM 45.7 °F 38.8 °F 20.5 °F 37% 30.07 in 10.0 mi WNW 16.1 mph 24.2 mph N/A   Clear
7:15 AM 46.0 °F 39.9 °F 20.8 °F 37% 30.08 in 10.0 mi WNW 13.8 mph - N/A   Clear
7:35 AM 46.4 °F 42.4 °F 21.2 °F 37% 30.10 in 10.0 mi NW 8.1 mph - N/A   Clear
7:55 AM 48.6 °F - 22.1 °F 35% 30.11 in 10.0 mi NW 9.2 mph - N/A   Clear
8:15 AM 49.6 °F - 22.6 °F 35% 30.11 in 10.0 mi NNW 6.9 mph - N/A   Clear
8:35 AM 52.7 °F - 23.5 °F 32% 30.13 in 10.0 mi NNW 9.2 mph - N/A   Clear
8:55 AM 53.6 °F - 23.4 °F 31% 30.14 in 10.0 mi NNE 10.4 mph - N/A   Clear
9:15 AM 55.9 °F - 23.9 °F 29% 30.14 in 10.0 mi NNW 23.0 mph 28.8 mph N/A   Clear
9:35 AM 56.7 °F - 24.1 °F 28% 30.15 in 10.0 mi NNW 17.3 mph 26.5 mph N/A   Clear
9:55 AM 57.9 °F - 24.1 °F 27% 30.15 in 10.0 mi NW 17.3 mph 24.2 mph N/A   Clear
10:15 AM 58.1 °F - 23.9 °F 27% 30.15 in 10.0 mi NW 18.4 mph 24.2 mph N/A   Clear
10:35 AM 58.8 °F - 23.9 °F 26% 30.15 in 10.0 mi NNW 15.0 mph 23.0 mph N/A   Clear
10:55 AM 59.7 °F - 23.7 °F 25% 30.15 in 10.0 mi NNW 16.1 mph 25.3 mph N/A   Clear
11:15 AM 61.2 °F - 24.3 °F 24% 30.15 in 10.0 mi WNW 15.0 mph 24.2 mph N/A   Clear
11:35 AM 61.7 °F - 24.8 °F 24% 30.14 in 10.0 mi NW 23.0 mph 33.4 mph N/A   Clear
11:55 AM 61.2 °F - 24.6 °F 25% 30.13 in 10.0 mi NW 25.3 mph - N/A   Clear
12:15 PM 62.4 °F - 24.6 °F 24% 30.13 in 10.0 mi NW 23.0 mph 28.8 mph N/A   Clear
12:35 PM 61.9 °F - 24.8 °F 24% 30.12 in 10.0 mi NW 23.0 mph 33.4 mph N/A   Clear
12:55 PM 63.0 °F - 24.3 °F 23% 30.11 in 10.0 mi NW 18.4 mph 26.5 mph N/A   Clear
1:15 PM 62.6 °F - 24.6 °F 24% 30.10 in 10.0 mi NW 20.7 mph 27.6 mph N/A   Clear
1:35 PM 63.5 °F - 24.8 °F 23% 30.09 in 10.0 mi NW 23.0 mph 28.8 mph N/A   Clear
1:55 PM 62.2 °F - 24.6 °F 24% 30.09 in 10.0 mi West 17.3 mph 23.0 mph N/A   Clear
2:15 PM 63.9 °F - 23.0 °F 21% 30.09 in 10.0 mi WNW 19.6 mph 25.3 mph N/A   Clear
2:35 PM 63.3 °F - 23.5 °F 22% 30.09 in 10.0 mi West 17.3 mph 25.3 mph N/A   Clear
2:55 PM 63.3 °F - 23.0 °F 21% 30.08 in 10.0 mi West 20.7 mph 27.6 mph N/A   Clear
3:15 PM 63.0 °F - 23.0 °F 22% 30.09 in 10.0 mi West 23.0 mph 28.8 mph N/A   Clear
3:35 PM 62.6 °F - 23.4 °F 22% 30.10 in 10.0 mi West 13.8 mph 25.3 mph N/A   Clear
3:55 PM 63.0 °F - 23.2 °F 22% 30.10 in 10.0 mi West 18.4 mph 24.2 mph N/A   Clear
4:15 PM 62.6 °F - 23.0 °F 22% 30.10 in 10.0 mi West 18.4 mph 25.3 mph N/A   Clear
4:35 PM 61.7 °F - 23.0 °F 23% 30.10 in 10.0 mi West 15.0 mph - N/A   Clear
4:55 PM 60.4 °F - 23.5 °F 24% 30.11 in 10.0 mi NW 13.8 mph - N/A   Clear
5:15 PM 59.5 °F - 23.0 °F 25% 30.11 in 10.0 mi NW 15.0 mph - N/A   Clear
5:35 PM 56.5 °F - 23.0 °F 27% 30.11 in 10.0 mi NW 15.0 mph - N/A   Clear
5:55 PM 54.7 °F - 22.8 °F 29% 30.12 in 10.0 mi NW 12.7 mph - N/A   Clear
6:15 PM 54.0 °F - 23.0 °F 30% 30.13 in 10.0 mi NNW 10.4 mph - N/A   Clear
6:35 PM 51.6 °F - 22.5 °F 32% 30.13 in 10.0 mi NW 9.2 mph - N/A   Clear
6:55 PM 50.5 °F - 22.6 °F 34% 30.13 in 10.0 mi NW 13.8 mph - N/A   Clear
7:15 PM 53.1 °F - 23.0 °F 31% 30.13 in 10.0 mi WNW 13.8 mph - N/A   Clear
7:35 PM 49.6 °F - 22.6 °F 35% 30.14 in 10.0 mi NW 9.2 mph - N/A   Clear
7:55 PM 48.6 °F - 22.5 °F 36% 30.14 in 10.0 mi NW 10.4 mph - N/A   Clear
8:15 PM 49.8 °F - 22.8 °F 35% 30.14 in 10.0 mi NW 11.5 mph - N/A   Clear
8:35 PM 51.1 °F - 23.0 °F 33% 30.15 in 10.0 mi NW 11.5 mph - N/A   Clear
8:55 PM 48.9 °F - 23.0 °F 36% 30.15 in 10.0 mi West 8.1 mph - N/A   Clear
9:15 PM 50.4 °F - 23.0 °F 34% 30.16 in 10.0 mi West 10.4 mph - N/A   Clear
9:35 PM 48.4 °F - 22.8 °F 37% 30.16 in 10.0 mi WNW 10.4 mph - N/A   Clear
9:55 PM 46.0 °F 41.9 °F 22.5 °F 39% 30.16 in 10.0 mi West 8.1 mph - N/A   Clear
10:15 PM 44.6 °F 39.7 °F 22.1 °F 41% 30.16 in 10.0 mi NW 9.2 mph - N/A   Clear
10:35 PM 44.4 °F 39.5 °F 22.6 °F 42% 30.16 in 10.0 mi WNW 9.2 mph - N/A   Clear
10:55 PM 46.4 °F 41.1 °F 22.8 °F 39% 30.15 in 10.0 mi West 11.5 mph - N/A   Clear
11:15 PM 48.6 °F - 22.8 °F 36% 30.15 in 10.0 mi West 12.7 mph - N/A   Clear
11:35 PM 46.8 °F - 22.8 °F 39% 30.16 in 10.0 mi West 9.2 mph - N/A   Clear
11:55 PM 48.2 °F - 22.6 °F 37% 30.15 in 10.0 mi WNW 10.4 mph - N/A   Clear